Estas fotos corresponden a recuerdos de la década de los años 1950 y 1960 del Aeroclub Mar del Plata

 

Facebook Aeroclub Mar del Plata

Informe Climatico
MAR DEL PLATA AR
Metar
SAZM 132300Z 05008KT 7000 -RA SCT026 FEW035TCU OVC060 17/15 Q1009

23:00 UTC

Wind: 50° 8kt

Visibility: 7000 m

Sky: SCT 2600 ft

Temp: 17 deg C / 62.6 deg F

Dewpoint: 15 deg C / 59 deg F

Pressure: 1009 hPa

TAF
TAF SAZM 131700Z 1318/1418 05010G20KT CAVOK TX26/1418Z TN13/1410Z BECMG 1319/1322 05020G35KT PROB40 TEMPO 1400/1404 5000 TSRA BKN020 FEW035CB BKN050 BECMG 1406/1409 02015G25KT 7000 RADZ SCT010 BKN035 BECMG 1415/1418 23015KT 6000 SHRA BKN015 FEW025TCU